Time;durP1;ratioP1;P1;durP2;ratioP2;P2;SDS_P1;SDS_P2;PMS_P1;PMS_P2;Temp;Humidity;BMP_temperature;BMP_pressure;BME280_temperature;BME280_humidity;BME280_pressure;Samples;Min_cycle;Max_cycle;Signal;HPM_P1;HPM_P2
2023/01/24 00:00:10;;;;;;;16.77;10.35;;;3.60;99.90;;;;;;4978120;28;20077;-61
2023/01/24 00:02:35;;;;;;;13.63;10.55;;;3.60;99.90;;;;;;4961571;28;20038;-61
2023/01/24 00:05:01;;;;;;;16.88;11.95;;;3.60;99.90;;;;;;4980214;28;20061;-61
2023/01/24 00:07:27;;;;;;;14.70;10.38;;;3.60;99.90;;;;;;4977496;28;20528;-61
2023/01/24 00:09:52;;;;;;;18.08;11.60;;;3.50;99.90;;;;;;4955189;28;20181;-61
2023/01/24 00:12:18;;;;;;;16.90;11.25;;;3.60;99.90;;;;;;4986487;28;20039;-60
2023/01/24 00:14:49;;;;;;;16.30;11.15;;;3.60;99.90;;;;;;4975802;28;20034;-60
2023/01/24 00:17:15;;;;;;;15.85;11.20;;;3.60;99.90;;;;;;4970200;28;20117;-62
2023/01/24 00:19:41;;;;;;;14.80;10.68;;;3.60;99.90;;;;;;4979120;28;20573;-61
2023/01/24 00:22:07;;;;;;;16.83;11.35;;;3.60;99.90;;;;;;4975621;28;20410;-62
2023/01/24 00:24:35;;;;;;;16.17;11.63;;;3.60;99.90;;;;;;4982969;28;20109;-59
2023/01/24 00:27:01;;;;;;;16.92;11.60;;;3.50;99.90;;;;;;4958953;28;20042;-60
2023/01/24 00:29:27;;;;;;;14.77;9.80;;;3.60;99.90;;;;;;4980002;28;20563;-60
2023/01/24 00:31:53;;;;;;;16.33;10.98;;;3.60;99.90;;;;;;4984780;28;20046;-62
2023/01/24 00:34:19;;;;;;;17.08;11.85;;;3.50;99.90;;;;;;4981008;28;20382;-62
2023/01/24 00:36:45;;;;;;;16.15;11.05;;;3.50;99.90;;;;;;4977998;28;20039;-60
2023/01/24 00:39:11;;;;;;;17.23;10.75;;;3.50;99.90;;;;;;4982693;28;20046;-62
2023/01/24 00:41:37;;;;;;;17.98;11.65;;;3.50;99.90;;;;;;4980169;28;20043;-61
2023/01/24 00:44:02;;;;;;;16.90;11.43;;;3.50;99.90;;;;;;4980725;28;20056;-62
2023/01/24 00:46:28;;;;;;;17.25;11.10;;;3.50;99.90;;;;;;4979944;28;20605;-61
2023/01/24 00:48:54;;;;;;;17.42;11.80;;;3.60;99.90;;;;;;4957510;28;20084;-62
2023/01/24 00:51:19;;;;;;;18.23;11.38;;;3.50;99.90;;;;;;4996608;28;20048;-61
2023/01/24 00:53:48;;;;;;;18.95;13.38;;;3.50;99.90;;;;;;4983121;28;20061;-62
2023/01/24 00:56:16;;;;;;;17.65;11.77;;;3.50;99.90;;;;;;5000715;28;20042;-61
2023/01/24 00:58:42;;;;;;;17.05;11.90;;;3.50;99.90;;;;;;4966303;28;20052;-62
2023/01/24 01:01:08;;;;;;;17.77;11.98;;;3.50;99.90;;;;;;4980918;28;20490;-61
2023/01/24 01:03:33;;;;;;;17.90;11.25;;;3.50;99.90;;;;;;4979541;28;20100;-61
2023/01/24 01:06:09;;;;;;;18.15;11.98;;;3.50;99.90;;;;;;4976913;28;20038;-60
2023/01/24 01:08:35;;;;;;;17.20;11.60;;;3.50;99.90;;;;;;4955894;28;20123;-61
2023/01/24 01:11:01;;;;;;;17.10;12.20;;;3.50;99.90;;;;;;4981189;28;20078;-60
2023/01/24 01:13:27;;;;;;;18.20;12.00;;;3.50;99.90;;;;;;4964498;28;20089;-61
2023/01/24 01:16:16;;;;;;;17.25;12.18;;;3.50;99.90;;;;;;4983906;28;20049;-62
2023/01/24 01:18:42;;;;;;;17.15;10.90;;;3.50;99.90;;;;;;4981545;28;20038;-60
2023/01/24 01:21:11;;;;;;;20.75;12.40;;;3.50;99.90;;;;;;4996997;28;20103;-61
2023/01/24 01:23:36;;;;;;;19.60;11.88;;;3.50;99.90;;;;;;4998724;28;20466;-60
2023/01/24 01:26:05;;;;;;;18.95;13.63;;;3.50;99.90;;;;;;4976160;28;20498;-62
2023/01/24 01:28:31;;;;;;;17.65;12.80;;;3.50;99.90;;;;;;4980053;28;20038;-61
2023/01/24 01:30:57;;;;;;;23.52;13.82;;;3.50;99.90;;;;;;4978275;28;20030;-62
2023/01/24 01:33:24;;;;;;;19.60;12.68;;;3.60;99.90;;;;;;4986527;28;20100;-60
2023/01/24 01:35:51;;;;;;;21.10;12.38;;;3.60;99.90;;;;;;4979432;28;20042;-62
2023/01/24 01:38:17;;;;;;;21.08;13.80;;;3.50;99.90;;;;;;4965979;28;20146;-61
2023/01/24 01:40:46;;;;;;;19.33;12.65;;;3.50;99.90;;;;;;4984235;28;20038;-62
2023/01/24 01:43:14;;;;;;;18.52;13.10;;;3.50;99.90;;;;;;4992288;28;20050;-61
2023/01/24 01:45:48;;;;;;;20.05;13.48;;;3.50;99.90;;;;;;4975024;28;20058;-62
2023/01/24 01:48:17;;;;;;;;;;;3.50;99.90;;;;;;4980734;28;20046;-61
2023/01/24 01:50:51;;;;;;;19.52;12.82;;;3.60;99.90;;;;;;4979926;28;20423;-62
2023/01/24 01:53:17;;;;;;;20.67;13.27;;;3.50;99.90;;;;;;4998774;28;20047;-62
2023/01/24 01:55:54;;;;;;;18.77;12.45;;;3.50;99.90;;;;;;4988970;28;20037;-62
2023/01/24 01:58:20;;;;;;;20.33;14.40;;;3.50;99.90;;;;;;4983919;28;20121;-62
2023/01/24 02:00:50;;;;;;;19.58;13.80;;;3.50;99.90;;;;;;4986149;28;20117;-62
2023/01/24 02:03:40;;;;;;;20.98;13.95;;;3.50;99.90;;;;;;5004070;28;20409;-61
2023/01/24 02:06:13;;;;;;;21.02;13.10;;;3.50;99.90;;;;;;4981685;28;20255;-61
2023/01/24 02:08:39;;;;;;;22.08;14.05;;;3.50;99.90;;;;;;4966376;28;20054;-62
2023/01/24 02:16:01;;;;;;;20.33;12.15;;;3.50;99.90;;;;;;4983889;28;20133;-60
2023/01/24 02:16:36;;;;;;;20.88;13.38;;;3.60;99.90;;;;;;4988564;28;20054;-61
2023/01/24 02:19:02;;;;;;;15.95;10.93;;;3.60;99.90;;;;;;4968032;28;20041;-62
2023/01/24 02:21:28;;;;;;;22.08;13.98;;;3.60;99.90;;;;;;5001561;28;20555;-61
2023/01/24 02:24:10;;;;;;;18.75;13.73;;;3.60;99.90;;;;;;4986848;28;20038;-63
2023/01/24 02:26:36;;;;;;;14.05;9.68;;;3.60;99.90;;;;;;5004409;28;20093;-60
2023/01/24 02:29:05;;;;;;;20.88;13.98;;;3.60;99.90;;;;;;4968068;28;20082;-61
2023/01/24 02:31:55;;;;;;;19.38;13.52;;;3.60;99.90;;;;;;4997273;28;20116;-62
2023/01/24 02:34:21;;;;;;;17.38;12.15;;;3.60;99.90;;;;;;4988257;28;20141;-60
2023/01/24 02:36:55;;;;;;;16.95;11.75;;;3.60;99.90;;;;;;4989581;28;20038;-61
2023/01/24 02:39:29;;;;;;;20.95;13.45;;;3.60;99.90;;;;;;4975660;28;20053;-60
2023/01/24 02:42:08;;;;;;;21.00;14.25;;;3.70;99.90;;;;;;4984315;28;20047;-62
2023/01/24 02:44:44;;;;;;;20.55;12.93;;;3.60;99.90;;;;;;4990700;28;20100;-62
2023/01/24 02:47:10;;;;;;;20.75;13.25;;;3.70;99.90;;;;;;4988857;28;20472;-62
2023/01/24 02:49:36;;;;;;;18.77;12.45;;;3.70;99.90;;;;;;4999705;28;20096;-63
2023/01/24 02:54:46;;;;;;;;;;;3.60;99.90;;;;;;4981159;28;20038;-62
2023/01/24 02:59:56;;;;;;;;;;;3.60;99.90;;;;;;4980626;28;20046;-61
2023/01/24 03:02:21;;;;;;;16.30;11.43;;;3.60;99.90;;;;;;4981228;28;19940;-62
2023/01/24 03:04:47;;;;;;;16.73;11.98;;;3.60;99.90;;;;;;4983100;28;20481;-61
2023/01/24 03:07:13;;;;;;;20.77;12.05;;;3.60;99.90;;;;;;4978397;28;20146;-62
2023/01/24 03:09:45;;;;;;;18.27;12.00;;;3.60;99.90;;;;;;4977735;28;20042;-61
2023/01/24 03:36:51;;;;;;;13.63;10.15;;;3.60;99.90;;;;;;4969314;28;20186;-62
2023/01/24 03:42:01;;;;;;;;;;;3.60;99.90;;;;;;4994759;28;20042;-62
2023/01/24 03:44:28;;;;;;;15.63;10.48;;;3.60;99.90;;;;;;4994589;28;20281;-61
2023/01/24 03:46:54;;;;;;;16.95;11.93;;;3.60;99.90;;;;;;4979050;28;20476;-61
2023/01/24 03:54:48;;;;;;;18.25;12.30;;;3.60;99.90;;;;;;4998106;28;20484;-61
2023/01/24 03:57:13;;;;;;;18.48;12.60;;;3.60;99.90;;;;;;4962164;28;20046;-61
2023/01/24 03:59:39;;;;;;;17.33;11.52;;;3.60;99.90;;;;;;4979266;28;20038;-61
2023/01/24 04:02:05;;;;;;;15.88;11.23;;;3.60;99.90;;;;;;4979423;28;20505;-61
2023/01/24 04:05:12;;;;;;;15.35;10.55;;;3.60;99.90;;;;;;4980179;28;20067;-59
2023/01/24 04:07:16;;;;;;;16.58;11.52;;;3.60;99.90;;;;;;4989926;28;20061;-62
2023/01/24 04:09:42;;;;;;;17.23;11.70;;;3.60;99.90;;;;;;4976928;28;20042;-61
2023/01/24 04:12:07;;;;;;;16.05;11.43;;;3.60;99.90;;;;;;4979963;28;20065;-61
2023/01/24 04:14:33;;;;;;;19.15;12.10;;;3.60;99.90;;;;;;4981195;28;20038;-61
2023/01/24 04:16:59;;;;;;;17.42;10.95;;;3.60;99.90;;;;;;4967006;28;20038;-61
2023/01/24 04:19:24;;;;;;;16.42;11.18;;;3.60;99.90;;;;;;4980178;28;20038;-61
2023/01/24 04:21:50;;;;;;;18.95;11.55;;;3.60;99.90;;;;;;4979757;28;20259;-61
2023/01/24 04:24:16;;;;;;;16.08;11.32;;;3.60;99.90;;;;;;4998671;28;20042;-61
2023/01/24 04:26:41;;;;;;;18.67;12.18;;;3.60;99.90;;;;;;4981034;28;20078;-61
2023/01/24 04:29:07;;;;;;;17.10;11.43;;;3.60;99.90;;;;;;4982177;28;20421;-61
2023/01/24 04:31:33;;;;;;;18.48;11.32;;;3.60;99.90;;;;;;4980967;28;20058;-60
2023/01/24 04:33:59;;;;;;;16.67;11.88;;;3.60;99.90;;;;;;4984143;28;20043;-61
2023/01/24 04:36:24;;;;;;;15.32;10.40;;;3.60;99.90;;;;;;4981386;28;20046;-62
2023/01/24 04:38:50;;;;;;;12.48;9.32;;;3.60;99.90;;;;;;4972638;28;20046;-62
2023/01/24 04:41:16;;;;;;;16.90;11.15;;;3.60;99.90;;;;;;4971654;28;20307;-62
2023/01/24 04:43:42;;;;;;;14.30;10.57;;;3.70;99.90;;;;;;4980270;28;20049;-62
2023/01/24 04:46:08;;;;;;;15.85;11.30;;;3.60;99.90;;;;;;4984070;28;20034;-61
2023/01/24 04:48:34;;;;;;;16.52;11.60;;;3.60;99.90;;;;;;4979662;28;20416;-62
2023/01/24 04:51:00;;;;;;;14.07;10.40;;;3.60;99.90;;;;;;4976016;28;20082;-62
2023/01/24 04:53:29;;;;;;;15.80;10.40;;;3.60;99.90;;;;;;4980476;28;20141;-61
2023/01/24 04:56:02;;;;;;;17.52;12.35;;;3.60;99.90;;;;;;4976792;28;20038;-60
2023/01/24 04:58:30;;;;;;;20.73;12.27;;;3.60;99.90;;;;;;4975065;28;20075;-62
2023/01/24 05:00:56;;;;;;;17.65;12.05;;;3.60;99.90;;;;;;4974234;28;20362;-60
2023/01/24 05:03:22;;;;;;;16.17;11.82;;;3.60;99.90;;;;;;4967617;28;20100;-61
2023/01/24 05:05:52;;;;;;;19.02;13.38;;;3.60;99.90;;;;;;4997142;28;20144;-62
2023/01/24 05:08:18;;;;;;;18.20;12.40;;;3.60;99.90;;;;;;4995654;28;20050;-62
2023/01/24 05:10:44;;;;;;;17.65;11.68;;;3.60;99.90;;;;;;4975941;28;20133;-62
2023/01/24 05:13:10;;;;;;;16.75;11.50;;;3.60;99.90;;;;;;4978988;28;20062;-61
2023/01/24 05:15:38;;;;;;;16.52;11.55;;;3.50;99.90;;;;;;4962171;28;20035;-60
2023/01/24 05:18:04;;;;;;;15.48;10.88;;;3.50;99.90;;;;;;4976977;28;20397;-61
2023/01/24 05:20:30;;;;;;;15.70;10.65;;;3.60;99.90;;;;;;4977160;28;20038;-59
2023/01/24 05:22:58;;;;;;;16.75;12.23;;;3.50;99.90;;;;;;4986235;28;20065;-60
2023/01/24 05:25:24;;;;;;;16.27;11.35;;;3.50;99.90;;;;;;4978279;28;20042;-61
2023/01/24 05:27:53;;;;;;;15.05;10.95;;;3.50;99.90;;;;;;4972024;28;20050;-60
2023/01/24 05:30:19;;;;;;;18.80;12.90;;;3.50;99.90;;;;;;4975347;28;20046;-61
2023/01/24 05:32:45;;;;;;;15.45;10.95;;;3.50;99.90;;;;;;4977983;28;20045;-61
2023/01/24 05:35:10;;;;;;;17.33;12.00;;;3.50;99.90;;;;;;4999226;28;20042;-59
2023/01/24 05:37:37;;;;;;;19.63;12.80;;;3.50;99.90;;;;;;4985940;28;20208;-60
2023/01/24 05:40:04;;;;;;;17.20;11.85;;;3.50;99.90;;;;;;4980958;28;20050;-61
2023/01/24 05:42:30;;;;;;;21.25;13.18;;;3.60;99.90;;;;;;4975550;28;20491;-61
2023/01/24 05:44:56;;;;;;;19.55;13.23;;;3.50;99.90;;;;;;4967190;28;20121;-61
2023/01/24 05:47:22;;;;;;;20.95;12.98;;;3.60;99.90;;;;;;4982185;28;20121;-61
2023/01/24 05:49:48;;;;;;;21.15;14.13;;;3.50;99.90;;;;;;4997108;28;20046;-60
2023/01/24 05:52:21;;;;;;;22.17;14.90;;;3.60;99.90;;;;;;4975712;28;20051;-62
2023/01/24 05:54:48;;;;;;;19.98;13.38;;;3.50;99.90;;;;;;4978372;28;20147;-62
2023/01/24 05:57:14;;;;;;;20.08;13.50;;;3.50;99.90;;;;;;4975004;28;20409;-60
2023/01/24 05:59:40;;;;;;;19.05;12.18;;;3.50;99.90;;;;;;4976807;28;20111;-62
2023/01/24 06:02:05;;;;;;;20.73;14.20;;;3.50;99.90;;;;;;4976474;28;20211;-62
2023/01/24 06:04:31;;;;;;;18.95;13.30;;;3.50;99.90;;;;;;4985768;28;20408;-59
2023/01/24 06:06:57;;;;;;;19.35;13.32;;;3.50;99.90;;;;;;4981883;28;20393;-60
2023/01/24 06:09:23;;;;;;;23.02;13.90;;;3.50;99.90;;;;;;4986024;28;20121;-60
2023/01/24 06:11:49;;;;;;;20.00;13.38;;;3.50;99.90;;;;;;4984906;28;20254;-62
2023/01/24 06:14:15;;;;;;;19.20;13.95;;;3.40;99.90;;;;;;4978822;28;20394;-59
2023/01/24 06:16:43;;;;;;;19.92;13.75;;;3.40;99.90;;;;;;4965766;28;20038;-61
2023/01/24 06:19:11;;;;;;;22.05;13.57;;;3.40;99.90;;;;;;4981467;28;20038;-62
2023/01/24 06:21:53;;;;;;;21.63;14.20;;;3.40;99.90;;;;;;4985097;28;20033;-61
2023/01/24 06:24:20;;;;;;;21.10;14.57;;;3.40;99.90;;;;;;4982132;28;20297;-62
2023/01/24 06:26:50;;;;;;;21.98;14.75;;;3.40;99.90;;;;;;4981587;28;20046;-61
2023/01/24 06:29:18;;;;;;;19.65;13.25;;;3.40;99.90;;;;;;5003709;28;20045;-62
2023/01/24 06:32:11;;;;;;;19.05;13.02;;;3.40;99.90;;;;;;4978498;28;20113;-61
2023/01/24 06:35:09;;;;;;;29.25;18.52;;;3.40;99.90;;;;;;4966139;28;20100;-61
2023/01/24 06:37:46;;;;;;;22.42;14.82;;;3.40;99.90;;;;;;4975102;28;20460;-62
2023/01/24 06:40:17;;;;;;;24.98;16.15;;;3.40;99.90;;;;;;4980649;28;20052;-61
2023/01/24 06:42:43;;;;;;;30.45;18.55;;;3.40;99.90;;;;;;4982300;28;20045;-62
2023/01/24 06:45:13;;;;;;;25.08;17.10;;;3.40;99.90;;;;;;4977227;28;20046;-60
2023/01/24 06:47:39;;;;;;;34.80;21.38;;;3.30;99.90;;;;;;4995431;28;20102;-60
2023/01/24 06:50:07;;;;;;;37.78;21.95;;;3.40;99.90;;;;;;4966900;28;20061;-62
2023/01/24 06:52:49;;;;;;;32.50;19.95;;;3.40;99.90;;;;;;4976927;28;20046;-58
2023/01/24 06:55:15;;;;;;;40.72;24.63;;;3.40;99.90;;;;;;4939324;28;20453;-59
2023/01/24 06:57:42;;;;;;;46.50;28.35;;;3.30;99.90;;;;;;4948569;28;20034;-57
2023/01/24 07:00:08;;;;;;;45.97;27.90;;;3.30;99.90;;;;;;4958417;28;20047;-59
2023/01/24 07:02:34;;;;;;;35.08;22.45;;;3.40;99.90;;;;;;4954890;28;20127;-57
2023/01/24 07:04:59;;;;;;;37.70;25.73;;;3.40;99.90;;;;;;4950721;28;20046;-58
2023/01/24 07:07:28;;;;;;;28.38;19.17;;;3.40;99.90;;;;;;4959763;28;20057;-58
2023/01/24 07:09:53;;;;;;;25.38;17.95;;;3.40;99.90;;;;;;4975827;28;20042;-58
2023/01/24 07:12:19;;;;;;;28.23;18.23;;;3.30;99.90;;;;;;4975934;28;20085;-58
2023/01/24 07:14:48;;;;;;;24.15;16.35;;;3.30;99.90;;;;;;4977815;28;20050;-57
2023/01/24 07:17:14;;;;;;;27.02;18.83;;;3.30;99.90;;;;;;4957055;28;20130;-56
2023/01/24 07:19:40;;;;;;;26.27;18.05;;;3.30;99.90;;;;;;4956621;28;20073;-58
2023/01/24 07:22:11;;;;;;;27.30;18.48;;;3.30;99.90;;;;;;4977873;28;20062;-57
2023/01/24 07:24:37;;;;;;;25.20;17.85;;;3.20;99.90;;;;;;4965607;28;20048;-58
2023/01/24 07:27:06;;;;;;;25.85;17.85;;;3.20;99.90;;;;;;4975851;28;20526;-59
2023/01/24 07:29:32;;;;;;;30.90;19.42;;;3.20;99.90;;;;;;4987027;28;20050;-57
2023/01/24 07:32:00;;;;;;;29.33;19.65;;;3.30;99.90;;;;;;4981116;28;20046;-58
2023/01/24 07:34:26;;;;;;;27.00;18.70;;;3.20;99.90;;;;;;4980396;28;20042;-58
2023/01/24 07:36:52;;;;;;;30.02;20.35;;;3.30;99.90;;;;;;4965533;28;20042;-58
2023/01/24 07:39:17;;;;;;;28.85;18.83;;;3.20;99.90;;;;;;4969324;28;20105;-56
2023/01/24 07:41:43;;;;;;;27.85;18.95;;;3.20;99.90;;;;;;4961316;28;20474;-57
2023/01/24 07:44:10;;;;;;;30.33;19.80;;;3.20;99.90;;;;;;4962892;28;20318;-57
2023/01/24 07:46:35;;;;;;;32.00;20.05;;;3.20;99.90;;;;;;4960844;28;20301;-57
2023/01/24 07:49:02;;;;;;;27.50;19.50;;;3.20;99.90;;;;;;4986410;28;20034;-57
2023/01/24 07:51:28;;;;;;;29.17;18.80;;;3.20;99.90;;;;;;4946371;28;20111;-58
2023/01/24 07:53:54;;;;;;;29.13;20.23;;;3.20;99.90;;;;;;4974824;28;20125;-56
2023/01/24 07:56:20;;;;;;;28.00;18.35;;;3.20;99.90;;;;;;4977305;28;20144;-58
2023/01/24 07:58:45;;;;;;;28.95;19.15;;;3.20;99.90;;;;;;4983918;28;20042;-58
2023/01/24 08:01:18;;;;;;;30.08;19.33;;;3.20;99.90;;;;;;4982412;28;20449;-59
2023/01/24 08:03:45;;;;;;;31.47;19.57;;;3.20;99.90;;;;;;4983716;28;20261;-58
2023/01/24 08:06:10;;;;;;;28.80;18.75;;;3.10;99.90;;;;;;4979897;28;20482;-57
2023/01/24 08:08:36;;;;;;;30.52;18.60;;;3.10;99.90;;;;;;4965765;28;20520;-58
2023/01/24 08:11:02;;;;;;;33.83;20.52;;;3.10;99.90;;;;;;4972321;28;20038;-58
2023/01/24 08:13:27;;;;;;;31.17;19.92;;;3.10;99.90;;;;;;4961903;28;20050;-59
2023/01/24 08:15:53;;;;;;;31.13;19.70;;;3.00;99.90;;;;;;4983188;28;20045;-59
2023/01/24 08:18:22;;;;;;;30.10;19.38;;;3.10;99.90;;;;;;4985746;28;20381;-58
2023/01/24 08:20:48;;;;;;;30.75;18.33;;;3.10;99.90;;;;;;4962222;28;20046;-59
2023/01/24 08:23:17;;;;;;;27.40;18.55;;;3.10;99.90;;;;;;4962113;28;20392;-58
2023/01/24 08:25:43;;;;;;;30.95;19.40;;;3.10;99.90;;;;;;4978044;28;20042;-58
2023/01/24 08:28:08;;;;;;;30.25;18.83;;;3.10;99.90;;;;;;4957497;28;20046;-59
2023/01/24 08:30:34;;;;;;;27.52;18.48;;;3.10;99.90;;;;;;4963355;28;20124;-59
2023/01/24 08:33:05;;;;;;;29.13;18.55;;;3.10;99.90;;;;;;4966820;28;20110;-59
2023/01/24 08:35:33;;;;;;;27.37;17.67;;;3.00;99.90;;;;;;4979613;28;20042;-59
2023/01/24 08:37:59;;;;;;;28.98;18.17;;;3.10;99.90;;;;;;4983575;28;20381;-60
2023/01/24 08:40:25;;;;;;;27.25;16.88;;;3.10;99.90;;;;;;4975109;28;20121;-59
2023/01/24 08:42:52;;;;;;;27.00;16.85;;;3.00;99.90;;;;;;4988542;28;20528;-60
2023/01/24 08:45:17;;;;;;;27.63;17.45;;;3.10;99.90;;;;;;4979188;28;20258;-58
2023/01/24 08:47:43;;;;;;;27.48;17.05;;;3.00;99.90;;;;;;4964000;28;20050;-60
2023/01/24 08:50:10;;;;;;;25.42;17.50;;;3.10;99.90;;;;;;4962508;28;20481;-59
2023/01/24 08:52:35;;;;;;;29.45;17.92;;;3.10;99.90;;;;;;4975368;28;20030;-60
2023/01/24 08:55:01;;;;;;;26.98;17.65;;;3.10;99.90;;;;;;4972575;28;20053;-60
2023/01/24 08:57:27;;;;;;;28.25;18.13;;;3.10;99.90;;;;;;4977005;28;20043;-59
2023/01/24 08:59:53;;;;;;;29.42;18.83;;;3.10;99.90;;;;;;4960058;28;20042;-59
2023/01/24 09:02:19;;;;;;;29.85;19.05;;;3.10;99.90;;;;;;4975014;28;20516;-58
2023/01/24 09:04:44;;;;;;;29.80;18.35;;;3.10;99.90;;;;;;4962803;28;20401;-60
2023/01/24 09:07:11;;;;;;;26.73;18.10;;;3.10;99.90;;;;;;4965901;28;20059;-59
2023/01/24 09:09:37;;;;;;;29.73;18.88;;;3.10;99.90;;;;;;4975955;28;20050;-58
2023/01/24 09:12:03;;;;;;;28.38;18.38;;;3.10;99.90;;;;;;4957878;28;20050;-59
2023/01/24 09:14:29;;;;;;;28.88;17.23;;;3.10;99.90;;;;;;4985503;28;20507;-59
2023/01/24 09:16:55;;;;;;;28.50;17.23;;;3.10;99.90;;;;;;4946235;28;20154;-59
2023/01/24 09:19:21;;;;;;;30.42;19.17;;;3.10;99.90;;;;;;4976541;28;20066;-59
2023/01/24 09:21:51;;;;;;;31.20;19.38;;;3.10;99.90;;;;;;4983963;28;20034;-58
2023/01/24 09:24:20;;;;;;;30.60;19.33;;;3.10;99.90;;;;;;4979528;28;20117;-60
2023/01/24 09:26:46;;;;;;;26.88;18.92;;;3.10;99.90;;;;;;4977021;28;20470;-59
2023/01/24 09:29:12;;;;;;;32.85;20.55;;;3.10;99.90;;;;;;4976713;28;20140;-59
2023/01/24 09:31:41;;;;;;;27.77;18.27;;;3.10;99.90;;;;;;4956533;28;20117;-59
2023/01/24 09:34:06;;;;;;;27.15;18.42;;;3.20;99.90;;;;;;4978260;28;20044;-60
2023/01/24 09:36:33;;;;;;;28.77;19.50;;;3.20;99.90;;;;;;4978904;28;20046;-59
2023/01/24 09:38:59;;;;;;;27.83;19.90;;;3.20;99.90;;;;;;4979147;28;20046;-59
2023/01/24 09:41:27;;;;;;;27.38;18.35;;;3.20;99.90;;;;;;4981845;28;20030;-59
2023/01/24 09:43:58;;;;;;;31.25;18.48;;;3.20;99.90;;;;;;4982683;28;20444;-59
2023/01/24 09:46:27;;;;;;;27.63;18.90;;;3.20;99.90;;;;;;4969149;28;20053;-59
2023/01/24 09:49:02;;;;;;;28.20;19.42;;;3.20;99.90;;;;;;4989706;28;20048;-59
2023/01/24 09:51:31;;;;;;;24.50;16.80;;;3.30;99.90;;;;;;4983112;28;20505;-57
2023/01/24 09:54:08;;;;;;;26.75;18.20;;;3.20;99.90;;;;;;4981419;28;20386;-58
2023/01/24 09:56:36;;;;;;;26.13;17.10;;;3.20;99.90;;;;;;4962869;28;20043;-59
2023/01/24 09:59:23;;;;;;;27.00;17.17;;;3.20;99.90;;;;;;4975126;28;20038;-59
2023/01/24 10:01:52;;;;;;;27.27;17.80;;;3.20;99.90;;;;;;4962406;28;20721;-59
2023/01/24 10:04:34;;;;;;;20.95;14.88;;;3.20;99.90;;;;;;4978494;28;20054;-60
2023/01/24 10:07:03;;;;;;;25.20;16.40;;;3.30;99.90;;;;;;4979997;28;20493;-60
2023/01/24 10:09:55;;;;;;;27.67;17.75;;;3.30;99.90;;;;;;4977034;28;20037;-60
2023/01/24 10:12:42;;;;;;;24.35;17.15;;;3.30;99.90;;;;;;4940696;28;20039;-59
2023/01/24 10:15:20;;;;;;;25.55;16.65;;;3.30;99.90;;;;;;4979386;28;20429;-59
2023/01/24 10:18:10;;;;;;;24.58;15.77;;;3.30;99.90;;;;;;4959111;28;20046;-59
2023/01/24 10:20:51;;;;;;;24.38;15.48;;;3.20;99.90;;;;;;4962092;28;20458;-59
2023/01/24 10:23:35;;;;;;;22.92;14.88;;;3.30;99.90;;;;;;4983059;28;20049;-59
2023/01/24 10:26:10;;;;;;;21.33;14.60;;;3.20;99.90;;;;;;4975848;28;20397;-59
2023/01/24 10:28:40;;;;;;;31.52;20.33;;;3.20;99.90;;;;;;4982015;28;20085;-59
2023/01/24 10:31:18;;;;;;;29.45;18.63;;;3.20;99.90;;;;;;4945369;28;20042;-59
2023/01/24 10:33:49;;;;;;;24.92;15.38;;;3.20;99.90;;;;;;4976104;28;20031;-59
2023/01/24 10:36:34;;;;;;;22.80;15.45;;;3.20;99.90;;;;;;4942456;28;20054;-59
2023/01/24 10:39:00;;;;;;;21.73;14.52;;;3.30;99.90;;;;;;4976560;28;20038;-59
2023/01/24 10:41:30;;;;;;;22.95;16.15;;;3.30;99.90;;;;;;4972098;28;20049;-59
2023/01/24 10:44:23;;;;;;;22.08;14.88;;;3.30;99.90;;;;;;4959178;28;20164;-59
2023/01/24 10:47:22;;;;;;;22.42;14.57;;;3.40;99.90;;;;;;4971055;28;20117;-60
2023/01/24 10:49:58;;;;;;;26.05;18.23;;;3.40;99.90;;;;;;4958012;28;20060;-57
2023/01/24 10:52:23;;;;;;;63.88;36.80;;;3.40;99.90;;;;;;4971056;28;20034;-58
2023/01/24 10:54:55;;;;;;;56.03;35.53;;;3.40;99.90;;;;;;4957441;28;20093;-59
2023/01/24 10:57:35;;;;;;;24.20;15.80;;;3.40;99.90;;;;;;4958527;28;20054;-59
2023/01/24 11:00:05;;;;;;;23.15;16.45;;;3.40;99.90;;;;;;4958243;28;20099;-58
2023/01/24 11:02:35;;;;;;;29.20;18.98;;;3.40;99.90;;;;;;4938483;28;20038;-58
2023/01/24 11:05:05;;;;;;;22.58;15.20;;;3.40;99.90;;;;;;4972542;28;20057;-59
2023/01/24 11:07:38;;;;;;;21.92;14.65;;;3.40;99.90;;;;;;4982046;28;20711;-60
2023/01/24 11:10:16;;;;;;;26.88;18.88;;;3.40;99.90;;;;;;4957828;28;20042;-60
2023/01/24 11:12:57;;;;;;;22.83;15.93;;;3.40;99.90;;;;;;4982371;28;20508;-58
2023/01/24 11:15:26;;;;;;;25.45;16.77;;;3.40;99.90;;;;;;4954598;28;20062;-59
2023/01/24 11:17:58;;;;;;;21.55;16.10;;;3.40;99.90;;;;;;4975456;28;20038;-59
2023/01/24 11:20:30;;;;;;;20.17;15.20;;;3.40;99.90;;;;;;4975224;28;20047;-58
2023/01/24 11:23:17;;;;;;;25.33;16.30;;;3.30;99.90;;;;;;4979169;28;20038;-57
2023/01/24 11:26:04;;;;;;;23.70;15.60;;;3.40;99.90;;;;;;4977658;28;20517;-58
2023/01/24 11:28:34;;;;;;;21.55;15.98;;;3.40;99.90;;;;;;4974344;28;20043;-59
2023/01/24 11:31:07;;;;;;;24.35;17.30;;;3.40;99.90;;;;;;4957203;28;20121;-59
2023/01/24 11:33:45;;;;;;;23.35;17.00;;;3.40;99.90;;;;;;4955714;28;20049;-60
2023/01/24 11:36:37;;;;;;;24.42;17.05;;;3.40;99.90;;;;;;4976040;28;20185;-59
2023/01/24 11:39:20;;;;;;;24.70;17.25;;;3.50;99.90;;;;;;4952782;28;20181;-59
2023/01/24 11:42:25;;;;;;;26.03;17.40;;;3.40;99.90;;;;;;4961594;28;20043;-59
2023/01/24 11:44:59;;;;;;;;;;;3.40;99.90;;;;;;4962642;28;20161;-60
2023/01/24 11:47:32;;;;;;;25.08;17.65;;;3.40;99.90;;;;;;4983170;28;19917;-60
2023/01/24 11:50:40;;;;;;;24.40;17.65;;;3.50;99.90;;;;;;4967041;28;20066;-60
2023/01/24 11:53:11;;;;;;;33.58;21.27;;;3.50;99.90;;;;;;4973481;28;20620;-59
2023/01/24 11:55:40;;;;;;;33.40;21.58;;;3.50;99.90;;;;;;4974952;28;20640;-59
2023/01/24 11:58:05;;;;;;;29.98;19.77;;;3.40;99.90;;;;;;4981506;28;20497;-60
2023/01/24 12:00:43;;;;;;;32.55;21.58;;;3.40;99.90;;;;;;4976753;28;20101;-60
2023/01/24 12:03:24;;;;;;;31.55;21.75;;;3.40;99.90;;;;;;4982837;28;20061;-59
2023/01/24 12:06:07;;;;;;;24.55;17.45;;;3.30;99.90;;;;;;4983440;28;20074;-60
2023/01/24 12:08:38;;;;;;;26.08;19.08;;;3.40;99.90;;;;;;4950123;28;20042;-61
2023/01/24 12:11:22;;;;;;;25.85;19.15;;;3.40;99.90;;;;;;4961994;28;20058;-60
2023/01/24 12:14:18;;;;;;;26.08;17.33;;;3.40;99.90;;;;;;4972643;28;20038;-60
2023/01/24 12:16:44;;;;;;;24.73;18.10;;;3.40;99.90;;;;;;4970067;28;20057;-59
2023/01/24 12:19:27;;;;;;;25.92;17.67;;;3.30;99.90;;;;;;4983537;28;20320;-59
2023/01/24 12:21:58;;;;;;;25.17;17.70;;;3.40;99.90;;;;;;4981240;28;20046;-58
2023/01/24 12:24:41;;;;;;;25.63;18.15;;;3.40;99.90;;;;;;4988193;28;20057;-59
2023/01/24 12:27:17;;;;;;;25.27;17.80;;;3.30;99.90;;;;;;4983829;28;20074;-58
2023/01/24 12:29:54;;;;;;;25.35;17.42;;;3.30;99.90;;;;;;4971252;28;20080;-59
2023/01/24 12:32:36;;;;;;;27.02;18.13;;;3.40;99.90;;;;;;4971327;28;20425;-59
2023/01/24 12:35:21;;;;;;;26.48;18.23;;;3.40;99.90;;;;;;4978853;28;20070;-59
2023/01/24 12:38:24;;;;;;;26.50;17.40;;;3.40;99.90;;;;;;4984198;28;20062;-57
2023/01/24 12:40:58;;;;;;;22.70;16.55;;;3.40;99.90;;;;;;4990184;28;20409;-58
2023/01/24 12:43:45;;;;;;;24.73;16.60;;;3.40;99.90;;;;;;4986765;28;20560;-57
2023/01/24 12:46:18;;;;;;;25.15;17.80;;;3.40;99.90;;;;;;4971055;28;20052;-57
2023/01/24 12:48:55;;;;;;;25.57;17.57;;;3.50;99.90;;;;;;4961427;28;20049;-59
2023/01/24 12:51:33;;;;;;;25.98;18.40;;;3.50;99.90;;;;;;4986127;28;20857;-59
2023/01/24 12:57:22;;;;;;;25.98;17.35;;;3.40;99.90;;;;;;4979260;28;20515;-58
2023/01/24 12:59:49;;;;;;;27.08;17.80;;;3.50;99.90;;;;;;4968809;28;20173;-58
2023/01/24 13:02:36;;;;;;;22.65;17.27;;;3.50;99.90;;;;;;4960707;28;20137;-58
2023/01/24 13:05:22;;;;;;;24.35;17.40;;;3.50;99.90;;;;;;4968213;28;20065;-58
2023/01/24 13:07:48;;;;;;;22.42;16.20;;;3.50;99.90;;;;;;4948410;28;20125;-58
2023/01/24 13:10:51;;;;;;;28.02;18.95;;;3.50;99.90;;;;;;4951755;28;20126;-58
2023/01/24 13:13:33;;;;;;;26.83;17.42;;;3.50;99.90;;;;;;4987463;28;20047;-58
2023/01/24 13:16:17;;;;;;;25.42;17.33;;;3.50;99.90;;;;;;4960928;28;20035;-58
2023/01/24 13:19:18;;;;;;;27.15;17.33;;;3.50;99.90;;;;;;4972039;28;20125;-58
2023/01/24 13:21:50;;;;;;;21.17;15.52;;;3.50;99.90;;;;;;4942018;28;20584;-58
2023/01/24 13:24:24;;;;;;;20.58;14.95;;;3.50;99.90;;;;;;4966335;28;20058;-58
2023/01/24 13:27:09;;;;;;;24.42;16.50;;;3.50;99.90;;;;;;4987013;28;20078;-58
2023/01/24 13:30:07;;;;;;;24.65;16.05;;;3.50;99.90;;;;;;4968620;28;20133;-56
2023/01/24 13:32:38;;;;;;;22.55;16.33;;;3.50;99.90;;;;;;4950152;28;20054;-58
2023/01/24 13:35:18;;;;;;;21.23;15.63;;;3.50;99.90;;;;;;4984176;28;20061;-58
2023/01/24 13:38:14;;;;;;;23.52;15.93;;;3.60;99.90;;;;;;4987579;28;20045;-58
2023/01/24 13:40:40;;;;;;;24.95;17.63;;;3.80;99.90;;;;;;4971152;28;20045;-58